createdAt,value
2016-03-20T00:00:46.414Z,5.07
2016-03-20T00:01:46.307Z,5.07
2016-03-20T00:02:46.310Z,5.04
2016-03-20T00:03:46.329Z,5.02
2016-03-20T00:04:46.362Z,5.05
2016-03-20T00:05:46.365Z,5.02
2016-03-20T00:06:46.383Z,5.08
2016-03-20T00:07:46.370Z,5.07
2016-03-20T00:08:46.388Z,5.02
2016-03-20T00:09:46.422Z,5.08
2016-03-20T00:10:46.410Z,5.05
2016-03-20T00:11:46.428Z,5.11
2016-03-20T00:12:46.446Z,5.04
2016-03-20T00:13:46.464Z,5.11
2016-03-20T00:14:46.482Z,5.1
2016-03-20T00:15:46.595Z,5.1
2016-03-20T00:16:46.504Z,5.05
2016-03-20T00:17:46.522Z,5.05
2016-03-20T00:18:46.540Z,5.08
2016-03-20T00:19:46.544Z,5.04
2016-03-20T00:20:46.562Z,5
2016-03-20T00:21:46.580Z,5.02
2016-03-20T00:22:46.598Z,5.02
2016-03-20T00:23:46.616Z,5.12
2016-03-20T00:24:46.618Z,5.05
2016-03-20T00:25:46.621Z,5.08
2016-03-20T00:26:46.624Z,5.11
2016-03-20T00:27:46.659Z,5.17
2016-03-20T00:28:46.661Z,4.99
2016-03-20T00:29:46.664Z,5.08
2016-03-20T00:30:46.729Z,5.05
2016-03-20T00:31:46.700Z,5.04
2016-03-20T00:32:46.703Z,5.11
2016-03-20T00:33:46.737Z,5.04
2016-03-20T00:34:46.739Z,5.12
2016-03-20T00:35:46.758Z,5.08
2016-03-20T00:36:46.761Z,5.12
2016-03-20T00:37:46.779Z,5.07
2016-03-20T00:38:46.797Z,5.07
2016-03-20T00:39:46.800Z,5.04
2016-03-20T00:40:46.819Z,5.1
2016-03-20T00:41:46.822Z,5.12
2016-03-20T00:42:46.839Z,5.12
2016-03-20T00:43:46.874Z,5.15
2016-03-20T00:44:46.860Z,5.11
2016-03-20T00:45:46.894Z,5.15
2016-03-20T00:46:46.897Z,5.08
2016-03-20T00:47:46.930Z,5.12
2016-03-20T00:48:46.934Z,5.14
2016-03-20T00:49:46.936Z,5.14
2016-03-20T00:50:46.971Z,5.12
2016-03-20T00:51:46.957Z,5.1
2016-03-20T00:52:46.991Z,5.12
2016-03-20T00:53:47.009Z,5.11
2016-03-20T00:54:47.028Z,5.1
2016-03-20T00:55:47.015Z,5.14
2016-03-20T00:56:47.034Z,5.14
2016-03-20T00:57:47.051Z,5.1
2016-03-20T00:58:47.085Z,5.1
2016-03-20T00:59:47.104Z,5.14
2016-03-20T01:00:47.076Z,5.2
2016-03-20T01:01:47.125Z,5.08
2016-03-20T01:02:47.112Z,5.08
2016-03-20T01:03:47.131Z,5.11
2016-03-20T01:04:47.148Z,5.08
2016-03-20T01:05:47.151Z,5.08
2016-03-20T01:06:47.170Z,5.12
2016-03-20T01:07:47.189Z,5.02
2016-03-20T01:08:47.191Z,5.07
2016-03-20T01:09:47.208Z,5.14
2016-03-20T01:10:47.243Z,5.12
2016-03-20T01:11:47.230Z,5.05
2016-03-20T01:12:47.248Z,5.12
2016-03-20T01:13:47.250Z,5.1
2016-03-20T01:14:47.285Z,5.12
2016-03-20T01:15:47.131Z,5.14
2016-03-20T01:16:47.305Z,5.07
2016-03-20T01:17:47.324Z,5.15
2016-03-20T01:18:47.343Z,5.15
2016-03-20T01:19:47.346Z,5.14
2016-03-20T01:20:47.363Z,5.15
2016-03-20T01:21:47.382Z,5.14
2016-03-20T01:22:47.399Z,5.1
2016-03-20T01:23:47.402Z,5.04
2016-03-20T01:24:47.405Z,5.04
2016-03-20T01:25:47.408Z,5.11
2016-03-20T01:26:47.458Z,5.02
2016-03-20T01:27:47.445Z,5.02
2016-03-20T01:28:47.479Z,4.99
2016-03-20T01:29:47.482Z,5.05
2016-03-20T01:30:47.469Z,5.05
2016-03-20T01:31:47.518Z,5.12
2016-03-20T01:32:47.521Z,5.02
2016-03-20T01:33:47.540Z,5.02
2016-03-20T01:34:47.542Z,5.05
2016-03-20T01:35:47.559Z,5.07
2016-03-20T01:36:47.578Z,5.07
2016-03-20T01:37:47.597Z,4.99
2016-03-20T01:38:47.600Z,5.04
2016-03-20T01:39:47.617Z,5.15
2016-03-20T01:40:47.637Z,5.11
2016-03-20T01:41:47.670Z,5.15
2016-03-20T01:42:47.642Z,5.1
2016-03-20T01:43:47.660Z,5.1
2016-03-20T01:44:47.678Z,5.18
2016-03-20T01:45:47.696Z,5.18
2016-03-20T01:46:47.699Z,5.14
2016-03-20T01:47:47.733Z,5.1
2016-03-20T01:48:46.969Z,5.2
2016-03-20T01:49:47.738Z,5.14
2016-03-20T01:50:47.772Z,5.17
2016-03-20T01:51:47.775Z,5.12
2016-03-20T01:52:47.794Z,5.15
2016-03-20T01:53:47.796Z,5.1
2016-03-20T01:54:47.815Z,5.04
2016-03-20T01:55:47.833Z,5.12
2016-03-20T01:56:47.851Z,5.1
2016-03-20T01:57:47.853Z,5.14
2016-03-20T01:58:47.872Z,5.17
2016-03-20T01:59:47.874Z,5.02
2016-03-20T02:00:47.909Z,5.05
2016-03-20T02:01:47.895Z,5.02
2016-03-20T02:02:47.929Z,5.07
2016-03-20T02:03:47.932Z,5.02
2016-03-20T02:04:47.935Z,5.05
2016-03-20T02:05:47.985Z,4.97
2016-03-20T02:06:47.972Z,4.96
2016-03-20T02:07:47.989Z,4.93
2016-03-20T02:08:48.008Z,4.93
2016-03-20T02:09:48.011Z,4.97
2016-03-20T02:10:48.045Z,4.92
2016-03-20T02:11:48.032Z,4.92
2016-03-20T02:12:48.067Z,4.9
2016-03-20T02:13:48.037Z,4.9
2016-03-20T02:14:48.087Z,4.99
2016-03-20T02:15:48.089Z,4.93
2016-03-20T02:16:48.092Z,5
2016-03-20T02:17:48.142Z,4.89
2016-03-20T02:18:48.129Z,5
2016-03-20T02:19:48.163Z,5.02
2016-03-20T02:20:48.165Z,4.96
2016-03-20T02:21:48.168Z,4.94
2016-03-20T02:22:48.202Z,4.99
2016-03-20T02:23:48.174Z,4.9
2016-03-20T02:24:48.224Z,4.92
2016-03-20T02:25:48.226Z,4.94
2016-03-20T02:26:48.244Z,4.89
2016-03-20T02:27:48.263Z,4.92
2016-03-20T02:28:48.265Z,4.89
2016-03-20T02:29:48.299Z,4.94
2016-03-20T02:30:48.318Z,4.93
2016-03-20T02:31:48.148Z,4.93
2016-03-20T02:32:48.354Z,4.9
2016-03-20T02:33:48.341Z,4.87
2016-03-20T02:34:48.359Z,4.82
2016-03-20T02:35:48.362Z,4.86
2016-03-20T02:36:48.381Z,4.86
2016-03-20T02:37:48.384Z,4.93
2016-03-20T02:38:48.401Z,4.9
2016-03-20T02:39:48.420Z,4.93
2016-03-20T02:40:48.407Z,4.94
2016-03-20T02:41:48.441Z,4.89
2016-03-20T02:42:48.459Z,4.94
2016-03-20T02:43:48.461Z,4.87
2016-03-20T02:44:48.495Z,4.93
2016-03-20T02:45:48.483Z,4.96
2016-03-20T02:46:48.500Z,4.97
2016-03-20T02:47:48.520Z,4.93
2016-03-20T02:48:48.538Z,4.92
2016-03-20T02:49:48.556Z,4.89
2016-03-20T02:50:48.558Z,4.9
2016-03-20T02:51:48.561Z,4.92
2016-03-20T02:52:48.580Z,4.94
2016-03-20T02:53:48.598Z,4.93
2016-03-20T02:54:48.616Z,4.89
2016-03-20T02:55:48.619Z,4.92
2016-03-20T02:56:48.653Z,4.96
2016-03-20T02:57:48.671Z,4.93
2016-03-20T02:58:48.658Z,4.97
2016-03-20T02:59:48.707Z,4.9
2016-03-20T03:00:48.696Z,4.93
2016-03-20T03:01:48.713Z,4.89
2016-03-20T03:02:48.715Z,4.9
2016-03-20T03:03:48.735Z,4.92
2016-03-20T03:04:48.737Z,4.9
2016-03-20T03:05:48.756Z,4.94
2016-03-20T03:06:48.764Z,4.96
2016-03-20T03:07:48.783Z,4.97
2016-03-20T03:08:48.802Z,4.92
2016-03-20T03:09:48.805Z,4.93
2016-03-20T03:10:48.822Z,4.96
2016-03-20T03:11:48.841Z,4.9
2016-03-20T03:12:48.859Z,4.87
2016-03-20T03:13:48.846Z,4.87
2016-03-20T03:14:48.880Z,4.96
2016-03-20T03:15:48.899Z,4.9
2016-03-20T03:16:48.916Z,4.84
2016-03-20T03:17:48.935Z,4.89
2016-03-20T03:18:48.938Z,4.87
2016-03-20T03:19:48.956Z,4.82
2016-03-20T03:20:48.959Z,4.84
2016-03-20T03:21:48.993Z,4.84
2016-03-20T03:22:48.979Z,4.8
2016-03-20T03:23:48.998Z,4.84
2016-03-20T03:24:49.016Z,4.93
2016-03-20T03:25:49.018Z,4.9
2016-03-20T03:26:49.038Z,4.89
2016-03-20T03:27:49.056Z,4.74
2016-03-20T03:28:49.090Z,4.77
2016-03-20T03:29:49.076Z,4.77
2016-03-20T03:30:49.126Z,4.78
2016-03-20T03:31:49.113Z,4.74
2016-03-20T03:32:49.163Z,4.74
2016-03-20T03:33:49.150Z,4.74
2016-03-20T03:34:49.168Z,4.8
2016-03-20T03:35:49.155Z,4.73
2016-03-20T03:36:49.236Z,4.73
2016-03-20T03:37:49.192Z,4.74
2016-03-20T03:38:49.242Z,4.77
2016-03-20T03:39:49.213Z,4.66
2016-03-20T03:40:49.293Z,4.87
2016-03-20T03:41:49.234Z,4.84
2016-03-20T03:42:49.268Z,4.73
2016-03-20T03:43:49.255Z,4.8
2016-03-20T03:44:49.351Z,4.82
2016-03-20T03:45:49.291Z,4.78
2016-03-20T03:46:49.325Z,4.86
2016-03-20T03:47:49.344Z,4.75
2016-03-20T03:48:49.346Z,4.84
2016-03-20T03:49:49.365Z,4.7
2016-03-20T03:50:49.352Z,4.7
2016-03-20T03:51:49.370Z,4.67
2016-03-20T03:52:49.405Z,4.66
2016-03-20T03:53:49.407Z,4.63
2016-03-20T03:54:49.426Z,4.67
2016-03-20T03:55:49.428Z,4.7
2016-03-20T03:56:49.446Z,4.68
2016-03-20T03:57:49.465Z,4.68
2016-03-20T03:58:49.482Z,4.56
2016-03-20T03:59:49.501Z,4.67
2016-03-20T04:00:49.503Z,4.67
2016-03-20T04:01:49.507Z,4.62
2016-03-20T04:02:49.530Z,4.52
2016-03-20T04:03:49.533Z,4.5
2016-03-20T04:04:49.535Z,4.49
2016-03-20T04:05:49.569Z,4.53
2016-03-20T04:06:49.572Z,4.44
2016-03-20T04:07:49.590Z,4.4
2016-03-20T04:08:49.577Z,4.52
2016-03-20T04:09:49.626Z,4.53
2016-03-20T04:10:49.644Z,4.55
2016-03-20T04:11:49.633Z,4.49
2016-03-20T04:12:49.650Z,4.56
2016-03-20T04:13:49.668Z,4.58
2016-03-20T04:14:49.688Z,4.62
2016-03-20T04:15:49.690Z,4.53
2016-03-20T04:16:49.707Z,4.59
2016-03-20T04:17:49.570Z,4.56
2016-03-20T04:18:49.729Z,4.53
2016-03-20T04:19:49.590Z,4.52
2016-03-20T04:20:49.797Z,4.55
2016-03-20T04:21:49.768Z,4.42
2016-03-20T04:22:49.786Z,4.42
2016-03-20T04:23:49.790Z,4.4
2016-03-20T04:24:49.636Z,4.41
2016-03-20T04:25:49.841Z,4.49
2016-03-20T04:26:49.829Z,4.53
2016-03-20T04:27:49.852Z,4.5
2016-03-20T04:28:49.827Z,4.56
2016-03-20T04:29:49.832Z,4.48
2016-03-20T04:30:49.854Z,4.5
2016-03-20T04:31:49.672Z,4.49
2016-03-20T04:32:49.855Z,4.49
2016-03-20T04:33:49.838Z,4.52
2016-03-20T04:34:49.883Z,4.52
2016-03-20T04:35:49.866Z,4.49
2016-03-20T04:36:49.895Z,4.5
2016-03-20T04:37:49.927Z,4.5
2016-03-20T04:38:49.897Z,4.56
2016-03-20T04:39:49.929Z,4.53
2016-03-20T04:40:49.946Z,4.48
2016-03-20T04:41:49.963Z,4.55
2016-03-20T04:42:49.965Z,4.52
2016-03-20T04:43:49.967Z,4.45
2016-03-20T04:44:49.969Z,4.56
2016-03-20T04:45:50.001Z,4.56
2016-03-20T04:46:49.284Z,4.53
2016-03-20T04:47:50.006Z,4.55
2016-03-20T04:48:49.321Z,4.53
2016-03-20T04:49:50.042Z,4.55
2016-03-20T04:50:50.108Z,4.59
2016-03-20T04:51:50.064Z,4.53
2016-03-20T04:52:50.081Z,4.59
2016-03-20T04:53:50.084Z,4.49
2016-03-20T04:54:50.103Z,4.45
2016-03-20T04:55:50.121Z,4.5
2016-03-20T04:56:50.171Z,4.48
2016-03-20T04:57:50.189Z,4.5
2016-03-20T04:58:50.222Z,4.58
2016-03-20T04:59:50.211Z,4.49
2016-03-20T05:00:50.197Z,4.52
2016-03-20T05:01:50.246Z,4.56
2016-03-20T05:02:50.219Z,4.42
2016-03-20T05:03:50.236Z,4.41
2016-03-20T05:04:50.239Z,4.42
2016-03-20T05:05:50.274Z,4.5
2016-03-20T05:06:50.104Z,4.38
2016-03-20T05:07:50.278Z,4.41
2016-03-20T05:08:50.313Z,4.31
2016-03-20T05:09:50.299Z,4.4
2016-03-20T05:10:50.317Z,4.44
2016-03-20T05:11:50.352Z,4.37
2016-03-20T05:12:50.323Z,4.4
2016-03-20T05:13:50.373Z,4.41
2016-03-20T05:14:50.376Z,4.44
2016-03-20T05:15:50.393Z,4.41
2016-03-20T05:16:50.474Z,4.45
2016-03-20T05:17:50.399Z,4.41
2016-03-20T05:18:50.433Z,4.44
2016-03-20T05:19:50.436Z,4.35
2016-03-20T05:20:50.439Z,4.34
2016-03-20T05:21:50.457Z,4.45
2016-03-20T05:22:50.475Z,4.4
2016-03-20T05:23:50.493Z,4.44
2016-03-20T05:24:50.496Z,4.41
2016-03-20T05:25:50.514Z,4.41
2016-03-20T05:26:50.548Z,4.4
2016-03-20T05:27:50.535Z,4.55
2016-03-20T05:28:50.569Z,4.49
2016-03-20T05:29:50.587Z,4.48
2016-03-20T05:30:50.559Z,4.49
2016-03-20T05:31:50.608Z,4.5
2016-03-20T05:32:50.596Z,4.5
2016-03-20T05:33:50.630Z,4.52
2016-03-20T05:34:50.632Z,4.49
2016-03-20T05:35:50.635Z,4.49
2016-03-20T05:36:50.653Z,4.52
2016-03-20T05:37:50.671Z,4.53
2016-03-20T05:38:50.705Z,4.53
2016-03-20T05:39:50.677Z,4.53
2016-03-20T05:40:50.710Z,4.58
2016-03-20T05:41:50.730Z,4.62
2016-03-20T05:42:50.732Z,4.6
2016-03-20T05:43:50.750Z,4.62
2016-03-20T05:44:50.769Z,4.63
2016-03-20T05:45:50.771Z,4.58
2016-03-20T05:46:50.804Z,4.66
2016-03-20T05:47:50.807Z,4.62
2016-03-20T05:48:50.810Z,4.67
2016-03-20T05:49:50.813Z,4.62
2016-03-20T05:50:50.832Z,4.63
2016-03-20T05:51:50.850Z,4.62
2016-03-20T05:52:50.853Z,4.67
2016-03-20T05:53:50.887Z,4.67
2016-03-20T05:54:50.889Z,4.68
2016-03-20T05:55:50.907Z,4.68
2016-03-20T05:56:50.941Z,4.67
2016-03-20T05:57:50.944Z,4.62
2016-03-20T05:58:50.962Z,4.63
2016-03-20T05:59:50.965Z,4.62
2016-03-20T06:00:50.983Z,4.66
2016-03-20T06:01:50.986Z,4.68
2016-03-20T06:02:50.989Z,4.68
2016-03-20T06:03:51.038Z,4.7
2016-03-20T06:04:51.025Z,4.67
2016-03-20T06:05:51.027Z,4.63
2016-03-20T06:06:51.047Z,4.63
2016-03-20T06:07:51.065Z,4.67
2016-03-20T06:08:51.083Z,4.7
2016-03-20T06:09:51.086Z,4.73
2016-03-20T06:10:51.104Z,4.66
2016-03-20T06:11:51.122Z,4.67
2016-03-20T06:12:51.140Z,4.68
2016-03-20T06:13:51.143Z,4.67
2016-03-20T06:14:51.161Z,4.68
2016-03-20T06:15:51.165Z,4.71
2016-03-20T06:16:51.182Z,4.73
2016-03-20T06:17:51.201Z,4.7
2016-03-20T06:18:51.235Z,4.77
2016-03-20T06:19:51.222Z,4.84
2016-03-20T06:20:51.240Z,4.87
2016-03-20T06:21:51.259Z,4.82
2016-03-20T06:22:51.261Z,4.84
2016-03-20T06:23:51.279Z,4.84
2016-03-20T06:24:51.313Z,4.82
2016-03-20T06:25:51.316Z,4.71
2016-03-20T06:26:51.366Z,4.71
2016-03-20T06:27:51.322Z,4.77
2016-03-20T06:28:51.371Z,4.82
2016-03-20T06:29:51.358Z,4.87
2016-03-20T06:30:51.408Z,4.87
2016-03-20T06:31:51.380Z,4.77
2016-03-20T06:32:51.398Z,4.82
2016-03-20T06:33:51.431Z,4.84
2016-03-20T06:34:51.434Z,4.82
2016-03-20T06:35:51.453Z,4.89
2016-03-20T06:36:51.486Z,4.9
2016-03-20T06:37:51.457Z,4.9
2016-03-20T06:38:51.538Z,4.86
2016-03-20T06:39:51.494Z,4.82
2016-03-20T06:40:51.529Z,4.87
2016-03-20T06:41:51.515Z,4.89
2016-03-20T06:42:51.549Z,4.96
2016-03-20T06:43:51.552Z,4.89
2016-03-20T06:44:51.586Z,4.96
2016-03-20T06:45:51.588Z,4.92
2016-03-20T06:46:51.591Z,4.8
2016-03-20T06:47:51.594Z,4.9
2016-03-20T06:48:51.644Z,4.86
2016-03-20T06:49:51.615Z,4.84
2016-03-20T06:50:51.648Z,4.86
2016-03-20T06:51:51.668Z,4.87
2016-03-20T06:52:51.654Z,4.84
2016-03-20T06:53:51.673Z,4.78
2016-03-20T06:54:51.676Z,4.84
2016-03-20T06:55:51.709Z,4.8
2016-03-20T06:56:51.572Z,4.84
2016-03-20T06:57:51.731Z,4.8
2016-03-20T06:58:51.764Z,4.87
2016-03-20T06:59:51.767Z,4.71
2016-03-20T07:00:51.770Z,4.74
2016-03-20T07:01:51.788Z,4.73
2016-03-20T07:02:51.791Z,4.67
2016-03-20T07:03:51.825Z,4.7
2016-03-20T07:04:51.811Z,4.7
2016-03-20T07:05:51.830Z,4.7
2016-03-20T07:06:51.849Z,4.73
2016-03-20T07:07:51.851Z,4.77
2016-03-20T07:08:51.885Z,4.92
2016-03-20T07:09:51.919Z,4.71
2016-03-20T07:10:51.921Z,4.78
2016-03-20T07:11:51.941Z,4.74
2016-03-20T07:12:51.943Z,4.67
2016-03-20T07:13:51.961Z,4.63
2016-03-20T07:14:51.963Z,4.73
2016-03-20T07:15:51.982Z,4.7
2016-03-20T07:16:51.985Z,4.68
2016-03-20T07:17:51.987Z,4.75
2016-03-20T07:18:52.021Z,4.71
2016-03-20T07:19:52.023Z,4.78
2016-03-20T07:20:52.027Z,4.89
2016-03-20T07:21:52.045Z,4.9
2016-03-20T07:22:52.063Z,4.89
2016-03-20T07:23:52.097Z,4.87
2016-03-20T07:24:52.084Z,4.8
2016-03-20T07:25:52.118Z,5.02
2016-03-20T07:26:52.120Z,4.97
2016-03-20T07:27:52.155Z,5.07
2016-03-20T07:28:52.204Z,5.1
2016-03-20T07:29:52.160Z,5.04
2016-03-20T07:30:52.194Z,5.02
2016-03-20T07:31:52.197Z,5.08
2016-03-20T07:32:52.199Z,5.04
2016-03-20T07:33:52.218Z,5.04
2016-03-20T07:34:52.220Z,4.97
2016-03-20T07:35:52.238Z,5.12
2016-03-20T07:36:52.305Z,5.12
2016-03-20T07:37:52.263Z,5.05
2016-03-20T07:38:51.968Z,5.08
2016-03-20T07:39:52.284Z,5.14
2016-03-20T07:40:52.349Z,5.12
2016-03-20T07:41:52.319Z,5.1
2016-03-20T07:42:51.605Z,5.1
2016-03-20T07:43:52.372Z,5.1
2016-03-20T07:44:52.438Z,5.08
2016-03-20T07:45:52.378Z,5.12
2016-03-20T07:46:52.427Z,5.12
2016-03-20T07:47:52.383Z,5.25
2016-03-20T07:48:52.433Z,5.26
2016-03-20T07:49:52.420Z,5.2
2016-03-20T07:50:52.485Z,5.25
2016-03-20T07:51:52.488Z,5.21
2016-03-20T07:52:51.709Z,5.23
2016-03-20T07:53:52.494Z,5.28
2016-03-20T07:54:52.512Z,5.23
2016-03-20T07:55:52.498Z,5.26
2016-03-20T07:56:52.533Z,5.23
2016-03-20T07:57:52.520Z,5.14
2016-03-20T07:58:52.538Z,5.14
2016-03-20T07:59:52.540Z,5.2
2016-03-20T08:00:52.575Z,5.17
2016-03-20T08:01:52.592Z,5.28
2016-03-20T08:02:52.596Z,5.26
2016-03-20T08:03:52.614Z,5.28
2016-03-20T08:04:52.631Z,5.32
2016-03-20T08:05:52.667Z,5.38
2016-03-20T08:06:52.684Z,5.43
2016-03-20T08:07:52.672Z,5.43
2016-03-20T08:08:52.674Z,5.41
2016-03-20T08:09:52.692Z,5.43
2016-03-20T08:10:52.711Z,5.35
2016-03-20T08:11:52.729Z,5.5
2016-03-20T08:12:52.732Z,5.51
2016-03-20T08:13:52.750Z,5.46
2016-03-20T08:14:52.753Z,5.44
2016-03-20T08:15:52.786Z,5.62
2016-03-20T08:16:52.789Z,5.68
2016-03-20T08:17:52.823Z,5.79
2016-03-20T08:18:52.794Z,5.72
2016-03-20T08:19:52.829Z,5.98
2016-03-20T08:20:52.847Z,5.98
2016-03-20T08:21:52.084Z,5.98
2016-03-20T08:22:52.852Z,5.99
2016-03-20T08:23:52.887Z,6.05
2016-03-20T08:24:52.889Z,6.12
2016-03-20T08:25:52.923Z,6.2
2016-03-20T08:26:52.926Z,6.12
2016-03-20T08:27:52.928Z,6.16
2016-03-20T08:28:53.010Z,6.09
2016-03-20T08:29:52.965Z,6.16
2016-03-20T08:30:52.984Z,6.05
2016-03-20T08:31:53.001Z,6.01
2016-03-20T08:32:53.020Z,5.94
2016-03-20T08:33:53.054Z,5.97
2016-03-20T08:34:53.025Z,6.07
2016-03-20T08:35:53.059Z,6.04
2016-03-20T08:36:53.047Z,6.14
2016-03-20T08:37:53.081Z,6.05
2016-03-20T08:38:53.083Z,6.07
2016-03-20T08:39:53.101Z,6.07
2016-03-20T08:40:53.120Z,5.97
2016-03-20T08:41:53.060Z,5.97
2016-03-20T08:42:53.156Z,6.04
2016-03-20T08:43:53.158Z,6.08
2016-03-20T08:44:53.177Z,6.05
2016-03-20T08:45:53.196Z,6.16
2016-03-20T08:46:53.183Z,6.19
2016-03-20T08:47:53.216Z,6.26
2016-03-20T08:48:53.250Z,6.26
2016-03-20T08:49:53.253Z,6.3
2016-03-20T08:50:53.271Z,6.14
2016-03-20T08:51:53.258Z,6.12
2016-03-20T08:52:53.277Z,6.16
2016-03-20T08:53:53.326Z,6.08
2016-03-20T08:54:53.313Z,6.09
2016-03-20T08:55:53.332Z,6.09
2016-03-20T08:56:53.335Z,6.09
2016-03-20T08:57:53.368Z,6.07
2016-03-20T08:58:53.371Z,6.08
2016-03-20T08:59:53.390Z,6.09
2016-03-20T09:00:53.392Z,6.22
2016-03-20T09:01:53.395Z,6.28
2016-03-20T09:02:53.412Z,6.35
2016-03-20T09:03:53.448Z,6.41
2016-03-20T09:04:53.434Z,6.41
2016-03-20T09:05:53.467Z,6.22
2016-03-20T09:06:53.486Z,6.19
2016-03-20T09:07:53.489Z,6.26
2016-03-20T09:08:53.508Z,6.2
2016-03-20T09:09:53.510Z,6.22
2016-03-20T09:10:53.528Z,6.31
2016-03-20T09:11:53.562Z,6.2
2016-03-20T09:12:53.550Z,6.17
2016-03-20T09:13:53.583Z,6.28
2016-03-20T09:14:53.602Z,6.28
2016-03-20T09:15:53.605Z,6.31
2016-03-20T09:16:53.622Z,6.41
2016-03-20T09:17:53.641Z,6.42
2016-03-20T09:18:53.660Z,6.31
2016-03-20T09:19:53.662Z,6.39
2016-03-20T09:20:53.665Z,6.33
2016-03-20T09:21:53.699Z,6.57
2016-03-20T09:22:53.701Z,6.46
2016-03-20T09:23:53.719Z,6.45
2016-03-20T09:24:53.722Z,6.52
2016-03-20T09:25:53.724Z,6.45
2016-03-20T09:26:53.790Z,6.44
2016-03-20T09:27:53.762Z,6.35
2016-03-20T09:28:53.779Z,6.42
2016-03-20T09:29:53.783Z,6.38
2016-03-20T09:30:53.817Z,6.41
2016-03-20T09:31:53.834Z,6.39
2016-03-20T09:32:53.838Z,6.49
2016-03-20T09:33:53.840Z,6.48
2016-03-20T09:34:53.858Z,6.46
2016-03-20T09:35:53.876Z,6.54
2016-03-20T09:36:53.911Z,6.49
2016-03-20T09:37:53.898Z,6.66
2016-03-20T09:38:53.932Z,6.64
2016-03-20T09:39:53.919Z,6.7
2016-03-20T09:40:53.953Z,6.82
2016-03-20T09:41:54.003Z,6.84
2016-03-20T09:42:53.989Z,6.88
2016-03-20T09:43:54.007Z,6.95
2016-03-20T09:44:54.011Z,7.07
2016-03-20T09:45:54.028Z,7.11
2016-03-20T09:46:54.031Z,7.06
2016-03-20T09:47:54.066Z,7.13
2016-03-20T09:48:54.083Z,7.03
2016-03-20T09:49:54.086Z,7.06
2016-03-20T09:50:54.105Z,7.2
2016-03-20T09:51:54.124Z,7.15
2016-03-20T09:52:54.126Z,7.15
2016-03-20T09:53:54.144Z,7.2
2016-03-20T09:54:54.147Z,7.15
2016-03-20T09:55:54.165Z,7.23
2016-03-20T09:56:54.215Z,7.23
2016-03-20T09:57:54.202Z,7.15
2016-03-20T09:58:54.204Z,7.29
2016-03-20T09:59:54.238Z,7.25
2016-03-20T10:00:54.225Z,7.14
2016-03-20T10:01:54.243Z,7.29
2016-03-20T10:02:54.293Z,7.29
2016-03-20T10:03:54.281Z,7.31
2016-03-20T10:04:54.298Z,7.2
2016-03-20T10:05:54.332Z,7.31
2016-03-20T10:06:54.335Z,7.31
2016-03-20T10:07:54.353Z,7.29
2016-03-20T10:08:54.372Z,7.31
2016-03-20T10:09:54.374Z,7.29
2016-03-20T10:10:54.378Z,7.47
2016-03-20T10:11:54.395Z,7.5
2016-03-20T10:12:54.414Z,7.56
2016-03-20T10:13:54.417Z,7.5
2016-03-20T10:14:54.450Z,7.54
2016-03-20T10:15:54.469Z,7.53
2016-03-20T10:16:54.471Z,7.5
2016-03-20T10:17:54.505Z,7.45
2016-03-20T10:18:54.508Z,7.25
2016-03-20T10:19:54.510Z,7.17
2016-03-20T10:20:54.530Z,7.35
2016-03-20T10:21:54.532Z,7.28
2016-03-20T10:22:54.566Z,7.43
2016-03-20T10:23:54.585Z,7.39
2016-03-20T10:24:54.618Z,7.51
2016-03-20T10:25:54.605Z,7.54
2016-03-20T10:26:54.655Z,7.58
2016-03-20T10:27:54.626Z,7.69
2016-03-20T10:28:54.660Z,7.72
2016-03-20T10:29:54.663Z,7.8
2016-03-20T10:30:54.697Z,7.79
2016-03-20T10:31:54.684Z,7.7
2016-03-20T10:32:54.734Z,7.75
2016-03-20T10:33:54.737Z,7.57
2016-03-20T10:34:54.770Z,7.67
2016-03-20T10:35:54.757Z,7.72
2016-03-20T10:36:54.759Z,7.83
2016-03-20T10:37:54.794Z,7.83
2016-03-20T10:38:54.812Z,7.97
2016-03-20T10:39:54.814Z,8.01
2016-03-20T10:40:54.817Z,7.95
2016-03-20T10:41:54.836Z,8.12
2016-03-20T10:42:54.853Z,8.13
2016-03-20T10:43:54.872Z,8.19
2016-03-20T10:44:54.891Z,8.44
2016-03-20T10:45:54.909Z,8.55
2016-03-20T10:46:54.927Z,8.67
2016-03-20T10:47:54.680Z,8.92
2016-03-20T10:48:54.948Z,8.91
2016-03-20T10:49:54.966Z,8.7
2016-03-20T10:50:54.985Z,8.74
2016-03-20T10:51:55.003Z,8.76
2016-03-20T10:52:55.005Z,8.58
2016-03-20T10:53:55.009Z,8.56
2016-03-20T10:54:55.027Z,8.55
2016-03-20T10:55:55.045Z,8.6
2016-03-20T10:56:55.063Z,8.64
2016-03-20T10:57:55.082Z,8.58
2016-03-20T10:58:55.115Z,8.61
2016-03-20T10:59:55.118Z,8.61
2016-03-20T11:00:55.137Z,8.71
2016-03-20T11:01:55.155Z,8.74
2016-03-20T11:02:55.220Z,8.71
2016-03-20T11:03:55.176Z,8.76
2016-03-20T11:04:55.195Z,8.74
2016-03-20T11:05:55.197Z,8.73
2016-03-20T11:06:55.231Z,8.84
2016-03-20T11:07:55.248Z,8.67
2016-03-20T11:08:55.251Z,8.46
2016-03-20T11:09:55.240Z,8.49
2016-03-20T11:10:55.289Z,8.6
2016-03-20T11:11:55.306Z,8.6
2016-03-20T11:12:55.309Z,8.61
2016-03-20T11:13:55.328Z,8.64
2016-03-20T11:14:55.361Z,8.74
2016-03-20T11:15:55.349Z,8.79
2016-03-20T11:16:55.383Z,8.84
2016-03-20T11:17:55.448Z,8.82
2016-03-20T11:18:55.435Z,8.82
2016-03-20T11:19:55.406Z,8.69
2016-03-20T11:20:55.425Z,8.71
2016-03-20T11:21:55.474Z,8.74
2016-03-20T11:22:55.477Z,8.82
2016-03-20T11:23:55.511Z,8.84
2016-03-20T11:24:55.544Z,8.82
2016-03-20T11:25:55.533Z,8.7
2016-03-20T11:26:55.582Z,8.64
2016-03-20T11:27:55.553Z,8.7
2016-03-20T11:28:55.665Z,8.61
2016-03-20T11:29:55.574Z,8.61
2016-03-20T11:30:55.608Z,8.53
2016-03-20T11:31:55.610Z,8.48
2016-03-20T11:32:55.723Z,8.44
2016-03-20T11:33:55.648Z,8.46
2016-03-20T11:34:55.697Z,8.49
2016-03-20T11:35:55.684Z,8.46
2016-03-20T11:36:55.733Z,8.58
2016-03-20T11:37:55.705Z,8.6
2016-03-20T11:38:55.770Z,8.6
2016-03-20T11:39:55.725Z,8.58
2016-03-20T11:41:02.744Z,8.66
2016-03-20T11:41:55.762Z,8.64
2016-03-20T11:42:55.797Z,8.74
2016-03-20T11:43:55.784Z,8.76
2016-03-20T11:44:55.818Z,8.88
2016-03-20T11:45:55.836Z,8.95
2016-03-20T11:46:55.838Z,9.03
2016-03-20T11:47:55.856Z,9.03
2016-03-20T11:49:27.128Z,9.04
2016-03-20T11:49:55.894Z,9.04
2016-03-20T11:50:55.911Z,8.95
2016-03-20T11:51:55.930Z,8.92
2016-03-20T11:52:55.949Z,8.88
2016-03-20T11:53:55.951Z,8.85
2016-03-20T11:54:55.985Z,8.88
2016-03-20T11:55:55.987Z,9.03
2016-03-20T11:56:56.005Z,9.1
2016-03-20T11:57:55.852Z,9.03
2016-03-20T11:58:55.277Z,9
2016-03-20T11:59:56.061Z,9.03
2016-03-20T12:00:56.049Z,8.99
2016-03-20T12:01:56.066Z,8.82
2016-03-20T12:02:56.116Z,8.63
2016-03-20T12:03:56.119Z,8.44
2016-03-20T12:04:56.137Z,8.34
2016-03-20T12:05:56.154Z,8.16
2016-03-20T12:06:56.157Z,8.1
2016-03-20T12:07:56.145Z,8.13
2016-03-20T12:08:56.162Z,8.12
2016-03-20T12:09:56.213Z,8.27
2016-03-20T12:10:56.215Z,8.26
2016-03-20T12:11:56.234Z,8.28
2016-03-20T12:12:56.096Z,8.24
2016-03-20T12:13:56.271Z,8.16
2016-03-20T12:14:56.289Z,8.15
2016-03-20T12:15:56.291Z,8.23
2016-03-20T12:16:56.309Z,8.18
2016-03-20T12:17:56.328Z,8.3
2016-03-20T12:18:56.330Z,8.13
2016-03-20T12:19:56.364Z,8.13
2016-03-20T12:20:56.367Z,8.15
2016-03-20T12:21:56.370Z,8.19
2016-03-20T12:22:56.419Z,8.01
2016-03-20T12:23:56.407Z,8.15
2016-03-20T12:24:56.425Z,8.16
2016-03-20T12:25:56.443Z,8.24
2016-03-20T12:26:56.462Z,8.28
2016-03-20T12:27:56.480Z,8.44
2016-03-20T12:28:56.498Z,8.6
2016-03-20T12:29:56.517Z,8.81
2016-03-20T12:30:56.519Z,8.97
2016-03-20T12:31:56.521Z,9
2016-03-20T12:32:56.541Z,9.19
2016-03-20T12:33:56.574Z,9.28
2016-03-20T12:34:56.593Z,9.25
2016-03-20T12:35:56.611Z,9.25
2016-03-20T12:36:56.598Z,9
2016-03-20T12:37:56.648Z,9.04
2016-03-20T12:38:56.651Z,9.08
2016-03-20T12:39:56.668Z,9.21
2016-03-20T12:40:56.546Z,9.1
2016-03-20T12:41:56.706Z,9.04
2016-03-20T12:42:56.771Z,9.08
2016-03-20T12:43:56.757Z,9.19
2016-03-20T12:44:56.775Z,9.19
2016-03-20T12:45:56.778Z,9.14
2016-03-20T12:46:56.765Z,9.18
2016-03-20T12:47:56.800Z,9.03
2016-03-20T12:48:56.787Z,8.92
2016-03-20T12:49:56.820Z,8.91
2016-03-20T12:50:56.823Z,8.94
2016-03-20T12:51:56.873Z,8.94
2016-03-20T12:52:56.875Z,8.91
2016-03-20T12:53:56.878Z,9.02
2016-03-20T12:54:56.912Z,8.94
2016-03-20T12:55:56.914Z,8.94
2016-03-20T12:56:56.949Z,8.82
2016-03-20T12:57:56.951Z,8.76
2016-03-20T12:58:56.969Z,8.73
2016-03-20T12:59:56.988Z,8.81
2016-03-20T13:00:56.990Z,8.79
2016-03-20T13:01:57.009Z,9.03
2016-03-20T13:02:57.027Z,9.11
2016-03-20T13:03:57.030Z,9.21
2016-03-20T13:04:57.063Z,9.13
2016-03-20T13:05:57.066Z,9.06
2016-03-20T13:06:56.913Z,9.16
2016-03-20T13:07:57.103Z,9.11
2016-03-20T13:08:57.107Z,9.18
2016-03-20T13:09:57.140Z,9.14
2016-03-20T13:10:57.143Z,9.06
2016-03-20T13:11:57.161Z,9.21
2016-03-20T13:12:57.164Z,9.08
2016-03-20T13:13:57.182Z,9.1
2016-03-20T13:14:57.231Z,9.18
2016-03-20T13:15:57.234Z,9.19
2016-03-20T13:16:57.253Z,9.26
2016-03-20T13:17:57.256Z,9.32
2016-03-20T13:18:57.273Z,9.29
2016-03-20T13:19:57.308Z,9.28
2016-03-20T13:20:57.311Z,9.23
2016-03-20T13:21:57.313Z,9.26
2016-03-20T13:22:57.316Z,9.18